createdAt,value
2018-06-30T00:00:21.302Z,55.26
2018-06-30T00:01:21.301Z,54.3
2018-06-30T00:02:21.036Z,54.27
2018-06-30T00:03:21.288Z,53.22
2018-06-30T00:04:21.025Z,52.84
2018-06-30T00:05:21.278Z,52.55
2018-06-30T00:06:21.281Z,52.87
2018-06-30T00:07:21.265Z,52.96
2018-06-30T00:08:21.008Z,53.99
2018-06-30T00:09:20.998Z,53.34
2018-06-30T00:10:21.326Z,53.8
2018-06-30T00:11:21.244Z,55.64
2018-06-30T00:12:21.243Z,56.88
2018-06-30T00:13:21.235Z,56.21
2018-06-30T00:14:20.971Z,56.6
2018-06-30T00:15:20.969Z,57.75
2018-06-30T00:16:21.217Z,59.56
2018-06-30T00:17:21.209Z,60.8
2018-06-30T00:18:21.213Z,61.09
2018-06-30T00:19:21.198Z,61.66
2018-06-30T00:20:21.197Z,63
2018-06-30T00:21:21.189Z,62.71
2018-06-30T00:22:21.181Z,62.62
2018-06-30T00:23:21.175Z,62.43
2018-06-30T00:24:20.916Z,62.33
2018-06-30T00:25:20.920Z,61.66
2018-06-30T00:26:21.163Z,61.38
2018-06-30T00:27:20.898Z,61.19
2018-06-30T00:28:21.155Z,60.71
2018-06-30T00:29:21.146Z,60.13
2018-06-30T00:30:21.142Z,60.23
2018-06-30T00:31:21.134Z,60.42
2018-06-30T00:32:21.132Z,60.33
2018-06-30T00:33:21.126Z,60.13
2018-06-30T00:34:20.863Z,59.37
2018-06-30T00:35:21.114Z,59.08
2018-06-30T00:36:21.110Z,58.32
2018-06-30T00:37:21.099Z,58.41
2018-06-30T00:38:21.355Z,58.22
2018-06-30T00:39:21.091Z,56.6
2018-06-30T00:40:21.081Z,56.6
2018-06-30T00:41:20.820Z,57.26
2018-06-30T00:42:20.815Z,54.02
2018-06-30T00:43:21.068Z,54.3
2018-06-30T00:44:20.805Z,54.88
2018-06-30T00:45:21.064Z,52.87
2018-06-30T00:46:21.056Z,52.87
2018-06-30T00:47:21.047Z,53.53
2018-06-30T00:48:20.783Z,53.16
2018-06-30T00:49:21.032Z,52.87
2018-06-30T00:50:21.029Z,50.86
2018-06-30T00:51:20.768Z,49.14
2018-06-30T00:52:21.050Z,47.61
2018-06-30T00:53:21.008Z,47.03
2018-06-30T00:54:21.005Z,44.81
2018-06-30T00:55:21.000Z,44.62
2018-06-30T00:56:20.997Z,43.95
2018-06-30T00:57:20.989Z,42.33
2018-06-30T00:58:20.727Z,41.56
2018-06-30T00:59:20.723Z,40.61
2018-06-30T01:00:20.977Z,41.18
2018-06-30T01:01:20.968Z,41.38
2018-06-30T01:02:20.963Z,42.33
2018-06-30T01:03:20.956Z,43
2018-06-30T01:04:20.949Z,43.98
2018-06-30T01:05:20.945Z,44.24
2018-06-30T01:06:20.941Z,44.17
2018-06-30T01:07:20.933Z,44.24
2018-06-30T01:08:20.669Z,42.14
2018-06-30T01:09:20.921Z,42.16
2018-06-30T01:10:20.920Z,41.85
2018-06-30T01:11:20.905Z,41.47
2018-06-30T01:12:20.904Z,41.66
2018-06-30T01:13:20.897Z,41.66
2018-06-30T01:14:20.892Z,40.03
2018-06-30T01:15:20.883Z,39.47
2018-06-30T01:16:20.879Z,38.32
2018-06-30T01:17:20.871Z,37.55
2018-06-30T01:18:20.866Z,36.5
2018-06-30T01:19:20.861Z,34.78
2018-06-30T01:20:20.862Z,34.3
2018-06-30T01:21:20.853Z,34.2
2018-06-30T01:22:20.848Z,32.87
2018-06-30T01:23:20.839Z,32.1
2018-06-30T01:24:20.830Z,31.72
2018-06-30T01:25:20.567Z,32.49
2018-06-30T01:26:20.565Z,32.49
2018-06-30T01:27:20.812Z,32.39
2018-06-30T01:28:20.809Z,32.1
2018-06-30T01:29:20.547Z,32.28
2018-06-30T01:30:20.540Z,32.09
2018-06-30T01:31:20.789Z,32.18
2018-06-30T01:32:20.786Z,31.51
2018-06-30T01:33:20.778Z,30.46
2018-06-30T01:34:20.773Z,30.75
2018-06-30T01:35:20.771Z,29.32
2018-06-30T01:36:20.761Z,28.84
2018-06-30T01:37:20.757Z,29.03
2018-06-30T01:38:20.751Z,29.41
2018-06-30T01:39:20.748Z,27.6
2018-06-30T01:40:20.734Z,26.17
2018-06-30T01:41:20.729Z,25.69
2018-06-30T01:42:20.723Z,24.73
2018-06-30T01:43:20.721Z,24.26
2018-06-30T01:44:20.716Z,24.35
2018-06-30T01:45:20.451Z,23.3
2018-06-30T01:46:20.701Z,22.92
2018-06-30T01:47:20.440Z,23.11
2018-06-30T01:48:20.430Z,23.68
2018-06-30T01:49:20.428Z,23.97
2018-06-30T01:50:20.678Z,24.54
2018-06-30T01:51:20.415Z,23.78
2018-06-30T01:52:20.664Z,23.02
2018-06-30T01:53:20.400Z,22.91
2018-06-30T01:54:20.652Z,23.1
2018-06-30T01:55:20.645Z,22.33
2018-06-30T01:56:20.641Z,21.09
2018-06-30T01:57:20.629Z,19.86
2018-06-30T01:58:20.624Z,19.2
2018-06-30T01:59:20.618Z,18.99
2018-06-30T02:00:20.611Z,18.62
2018-06-30T02:01:20.608Z,19.1
2018-06-30T02:02:20.599Z,18.81
2018-06-30T02:03:20.596Z,19.01
2018-06-30T02:04:20.588Z,18.81
2018-06-30T02:05:20.582Z,19.2
2018-06-30T02:06:20.578Z,19.29
2018-06-30T02:07:20.571Z,19.1
2018-06-30T02:08:20.563Z,19.01
2018-06-30T02:09:20.559Z,19.2
2018-06-30T02:10:20.295Z,19.29
2018-06-30T02:11:20.545Z,19.67
2018-06-30T02:12:20.539Z,20.25
2018-06-30T02:13:20.528Z,20.83
2018-06-30T02:14:20.531Z,21.97
2018-06-30T02:15:20.520Z,22.93
2018-06-30T02:16:20.255Z,23.98
2018-06-30T02:17:20.506Z,24.65
2018-06-30T02:18:20.498Z,25.42
2018-06-30T02:19:20.502Z,27.04
2018-06-30T02:20:20.236Z,27.52
2018-06-30T02:21:20.228Z,28.28
2018-06-30T02:22:20.480Z,29.14
2018-06-30T02:23:20.470Z,28.95
2018-06-30T02:24:20.464Z,29.52
2018-06-30T02:25:20.458Z,30.67
2018-06-30T02:26:20.454Z,33.35
2018-06-30T02:27:20.442Z,34.13
2018-06-30T02:28:20.440Z,34.99
2018-06-30T02:29:20.175Z,35.85
2018-06-30T02:30:20.429Z,36.79
2018-06-30T02:31:20.424Z,37.46
2018-06-30T02:32:20.414Z,38.14
2018-06-30T02:33:20.411Z,38.91
2018-06-30T02:34:20.407Z,38.62
2018-06-30T02:35:20.401Z,38.43
2018-06-30T02:36:20.396Z,38.71
2018-06-30T02:37:20.385Z,39.96
2018-06-30T02:38:20.129Z,40.34
2018-06-30T02:39:20.399Z,40.25
2018-06-30T02:40:20.371Z,40.53
2018-06-30T02:41:20.363Z,41.78
2018-06-30T02:42:20.356Z,41.68
2018-06-30T02:43:20.094Z,42.25
2018-06-30T02:44:20.346Z,42.07
2018-06-30T02:45:20.337Z,41.11
2018-06-30T02:46:20.073Z,41.58
2018-06-30T02:47:20.327Z,43.12
2018-06-30T02:48:20.069Z,43.59
2018-06-30T02:49:20.312Z,42.93
2018-06-30T02:50:20.309Z,42.44
2018-06-30T02:51:20.312Z,42.64
2018-06-30T02:52:20.292Z,42.73
2018-06-30T02:53:20.294Z,43.12
2018-06-30T02:54:20.292Z,43.69
2018-06-30T02:55:20.022Z,43.5
2018-06-30T02:56:20.270Z,43.4
2018-06-30T02:57:20.266Z,42.07
2018-06-30T02:58:20.257Z,43.12
2018-06-30T02:59:20.255Z,44.55
2018-06-30T03:00:20.256Z,44.26
2018-06-30T03:01:20.260Z,43.12
2018-06-30T03:02:19.985Z,43.48
2018-06-30T03:03:20.233Z,43.86
2018-06-30T03:04:19.968Z,43.59
2018-06-30T03:05:20.224Z,43.5
2018-06-30T03:06:20.213Z,43.4
2018-06-30T03:07:19.948Z,43.69
2018-06-30T03:08:20.204Z,43.09
2018-06-30T03:09:20.247Z,42.52
2018-06-30T03:10:20.199Z,42.52
2018-06-30T03:11:20.185Z,43.09
2018-06-30T03:12:20.177Z,42.81
2018-06-30T03:13:20.169Z,43.38
2018-06-30T03:14:20.177Z,43.57
2018-06-30T03:15:19.910Z,43.76
2018-06-30T03:16:20.155Z,43.19
2018-06-30T03:17:19.891Z,42.04
2018-06-30T03:18:20.141Z,42.14
2018-06-30T03:19:19.880Z,41.66
2018-06-30T03:20:20.130Z,41.66
2018-06-30T03:21:20.133Z,41.66
2018-06-30T03:22:20.119Z,42.14
2018-06-30T03:23:20.111Z,41.95
2018-06-30T03:24:20.109Z,42.24
2018-06-30T03:25:20.097Z,41.75
2018-06-30T03:26:20.102Z,41.85
2018-06-30T03:27:20.093Z,41.75
2018-06-30T03:28:20.080Z,42.52
2018-06-30T03:29:20.079Z,42.81
2018-06-30T03:30:20.067Z,42.61
2018-06-30T03:31:19.810Z,42.43
2018-06-30T03:32:19.799Z,42.33
2018-06-30T03:33:20.057Z,42.04
2018-06-30T03:34:20.046Z,41.85
2018-06-30T03:35:20.041Z,41.75
2018-06-30T03:36:20.032Z,41.18
2018-06-30T03:37:20.032Z,40.32
2018-06-30T03:38:20.021Z,39.75
2018-06-30T03:39:19.758Z,39.84
2018-06-30T03:40:20.016Z,40.7
2018-06-30T03:41:20.010Z,41.95
2018-06-30T03:42:20.000Z,43.09
2018-06-30T03:43:19.734Z,43.76
2018-06-30T03:44:19.725Z,44.43
2018-06-30T03:45:19.981Z,45.67
2018-06-30T03:46:20.091Z,46.25
2018-06-30T03:47:19.965Z,45.77
2018-06-30T03:48:19.964Z,44.72
2018-06-30T03:49:19.952Z,44.24
2018-06-30T03:50:19.946Z,44.34
2018-06-30T03:51:19.939Z,44.81
2018-06-30T03:52:19.932Z,45.48
2018-06-30T03:53:19.928Z,44.62
2018-06-30T03:54:19.920Z,43.86
2018-06-30T03:55:19.659Z,44.15
2018-06-30T03:56:19.909Z,44.72
2018-06-30T03:57:19.910Z,45.2
2018-06-30T03:58:19.900Z,45.48
2018-06-30T03:59:19.895Z,45.29
2018-06-30T04:00:19.884Z,44.53
2018-06-30T04:01:19.877Z,43.95
2018-06-30T04:02:19.874Z,43.29
2018-06-30T04:03:19.868Z,43.86
2018-06-30T04:04:19.862Z,43.48
2018-06-30T04:05:19.598Z,44.53
2018-06-30T04:06:19.858Z,45.58
2018-06-30T04:07:19.851Z,45.67
2018-06-30T04:08:19.847Z,46.53
2018-06-30T04:09:19.835Z,47.78
2018-06-30T04:10:19.828Z,47.39
2018-06-30T04:11:19.818Z,47.11
2018-06-30T04:12:19.561Z,47.97
2018-06-30T04:13:19.806Z,47.78
2018-06-30T04:14:19.800Z,47.87
2018-06-30T04:15:19.800Z,47.97
2018-06-30T04:16:19.793Z,50.45
2018-06-30T04:17:19.783Z,50.74
2018-06-30T04:18:19.776Z,49.3
2018-06-30T04:19:19.775Z,49.4
2018-06-30T04:20:19.760Z,49.49
2018-06-30T04:21:19.757Z,49.3
2018-06-30T04:22:19.492Z,48.16
2018-06-30T04:23:19.487Z,49.3
2018-06-30T04:24:19.738Z,49.4
2018-06-30T04:25:19.477Z,51.7
2018-06-30T04:26:19.725Z,54.39
2018-06-30T04:27:19.721Z,57.07
2018-06-30T04:28:19.738Z,58.61
2018-06-30T04:29:19.707Z,58.7
2018-06-30T04:30:19.713Z,57.26
2018-06-30T04:31:19.695Z,59.56
2018-06-30T04:32:19.694Z,59.34
2018-06-30T04:33:19.683Z,60.68
2018-06-30T04:34:19.686Z,59.08
2018-06-30T04:35:19.671Z,58.7
2018-06-30T04:36:19.673Z,58.19
2018-06-30T04:37:19.666Z,58.1
2018-06-30T04:38:19.398Z,58.38
2018-06-30T04:39:19.651Z,58.29
2018-06-30T04:40:19.641Z,58.1
2018-06-30T04:41:19.635Z,58.1
2018-06-30T04:42:19.633Z,57.9
2018-06-30T04:43:19.623Z,58.86
2018-06-30T04:44:19.620Z,58.1
2018-06-30T04:45:19.812Z,56.95
2018-06-30T04:46:19.606Z,57.33
2018-06-30T04:47:19.606Z,56.38
2018-06-30T04:48:19.598Z,55.52
2018-06-30T04:49:19.589Z,55.71
2018-06-30T04:50:19.326Z,55.9
2018-06-30T04:51:19.575Z,56.09
2018-06-30T04:52:19.571Z,55.9
2018-06-30T04:53:19.307Z,57.24
2018-06-30T04:54:19.556Z,58.1
2018-06-30T04:55:19.552Z,57.81
2018-06-30T04:56:19.545Z,57.81
2018-06-30T04:57:19.286Z,56.95
2018-06-30T04:58:19.538Z,56.85
2018-06-30T04:59:19.527Z,58.1
2018-06-30T05:00:19.523Z,58
2018-06-30T05:01:19.512Z,60.9
2018-06-30T05:02:19.510Z,60.23
2018-06-30T05:03:19.503Z,62.14
2018-06-30T05:04:19.500Z,61.19
2018-06-30T05:05:19.494Z,61.92
2018-06-30T05:06:19.487Z,62.01
2018-06-30T05:07:19.481Z,59.91
2018-06-30T05:08:19.475Z,58.67
2018-06-30T05:09:19.469Z,56.76
2018-06-30T05:10:19.465Z,56.57
2018-06-30T05:11:19.464Z,58.1
2018-06-30T05:12:19.195Z,58.61
2018-06-30T05:13:19.446Z,59.34
2018-06-30T05:14:19.438Z,61.47
2018-06-30T05:15:19.179Z,62.24
2018-06-30T05:16:19.171Z,61.66
2018-06-30T05:17:19.422Z,65.01
2018-06-30T05:18:19.412Z,65.39
2018-06-30T05:19:19.409Z,67.02
2018-06-30T05:20:19.405Z,66.92
2018-06-30T05:21:19.404Z,67.02
2018-06-30T05:22:19.394Z,66.92
2018-06-30T05:23:19.392Z,71.89
2018-06-30T05:24:19.399Z,70.84
2018-06-30T05:25:19.375Z,70.84
2018-06-30T05:26:19.373Z,71.32
2018-06-30T05:27:19.363Z,70.27
2018-06-30T05:28:19.101Z,69.6
2018-06-30T05:29:19.358Z,70.36
2018-06-30T05:30:19.353Z,70.84
2018-06-30T05:31:19.086Z,71.42
2018-06-30T05:32:19.336Z,72.94
2018-06-30T05:33:19.490Z,73.52
2018-06-30T05:34:19.327Z,72.47
2018-06-30T05:35:19.319Z,72.85
2018-06-30T05:36:19.060Z,73.71
2018-06-30T05:37:19.310Z,73.46
2018-06-30T05:38:19.305Z,74.28
2018-06-30T05:39:19.298Z,77.28
2018-06-30T05:40:19.292Z,78.43
2018-06-30T05:41:19.406Z,79.87
2018-06-30T05:42:19.285Z,78.24
2018-06-30T05:43:19.280Z,80.54
2018-06-30T05:44:19.269Z,79
2018-06-30T05:45:19.266Z,84.12
2018-06-30T05:46:19.260Z,92.83
2018-06-30T05:47:19.252Z,92.83
2018-06-30T05:48:19.249Z,91.97
2018-06-30T05:49:18.988Z,93.64
2018-06-30T05:50:19.244Z,97.09
2018-06-30T05:51:19.237Z,96.32
2018-06-30T05:52:19.230Z,94.69
2018-06-30T05:53:19.320Z,96.13
2018-06-30T05:54:19.226Z,95.84
2018-06-30T05:55:19.215Z,98.14
2018-06-30T05:56:19.213Z,97.28
2018-06-30T05:57:18.960Z,96.22
2018-06-30T05:58:18.945Z,99.99
2018-06-30T05:59:18.989Z,99.99
2018-06-30T06:00:19.192Z,99.77
2018-06-30T06:01:18.943Z,99.99
2018-06-30T06:02:19.186Z,99.99
2018-06-30T06:03:19.177Z,98.66
2018-06-30T06:04:19.177Z,99.05
2018-06-30T06:05:19.171Z,98.66
2018-06-30T06:06:19.163Z,98.95
2018-06-30T06:07:19.160Z,96.75
2018-06-30T06:08:19.160Z,98.47
2018-06-30T06:09:19.154Z,97.23
2018-06-30T06:10:19.148Z,96.56
2018-06-30T06:11:19.142Z,97.9
2018-06-30T06:12:19.139Z,97.23
2018-06-30T06:13:19.135Z,97.42
2018-06-30T06:14:19.134Z,99.99
2018-06-30T06:15:19.256Z,99.99
2018-06-30T06:16:19.124Z,99.99
2018-06-30T06:17:19.113Z,99.99
2018-06-30T06:18:19.120Z,99.99
2018-06-30T06:19:19.105Z,99.99
2018-06-30T06:20:19.100Z,99.99
2018-06-30T06:21:19.273Z,99.99
2018-06-30T06:22:19.097Z,99.99
2018-06-30T06:23:18.831Z,99.99
2018-06-30T06:24:19.081Z,99.99
2018-06-30T06:25:18.822Z,99.99
2018-06-30T06:26:19.078Z,99.99
2018-06-30T06:27:19.072Z,99.99
2018-06-30T06:28:19.071Z,99.99
2018-06-30T06:29:18.808Z,99.99
2018-06-30T06:30:19.060Z,99.99
2018-06-30T06:31:19.050Z,99.99
2018-06-30T06:32:19.051Z,99.99
2018-06-30T06:33:19.045Z,99.99
2018-06-30T06:34:18.786Z,99.99
2018-06-30T06:35:19.037Z,99.99
2018-06-30T06:36:19.041Z,99.99
2018-06-30T06:37:19.028Z,99.99
2018-06-30T06:38:19.022Z,99.99
2018-06-30T06:39:19.023Z,99.99
2018-06-30T06:40:19.016Z,99.99
2018-06-30T06:41:19.011Z,99.99
2018-06-30T06:42:19.005Z,99.99
2018-06-30T06:43:19.006Z,99.99
2018-06-30T06:44:18.998Z,99.99
2018-06-30T06:45:19.000Z,99.99
2018-06-30T06:46:18.737Z,99.99
2018-06-30T06:47:18.990Z,99.4
2018-06-30T06:48:18.983Z,89.4
2018-06-30T06:49:18.725Z,83.23
2018-06-30T06:50:18.979Z,74.41
2018-06-30T06:51:18.979Z,72.53
2018-06-30T06:52:18.978Z,68.26
2018-06-30T06:53:18.972Z,66.33
2018-06-30T06:54:18.714Z,63.21
2018-06-30T06:55:18.971Z,57.16
2018-06-30T06:56:19.014Z,51.1
2018-06-30T06:57:18.710Z,49.49
2018-06-30T06:58:18.970Z,47.74
2018-06-30T06:59:18.970Z,49
2018-06-30T07:00:18.965Z,47.84
2018-06-30T07:01:18.967Z,47.38
2018-06-30T07:02:18.969Z,45.47
2018-06-30T07:03:18.969Z,43.27
2018-06-30T07:04:18.967Z,43
2018-06-30T07:05:18.970Z,42.32
2018-06-30T07:06:18.975Z,39.82
2018-06-30T07:07:18.973Z,38.68
2018-06-30T07:08:18.972Z,36.27
2018-06-30T07:09:18.976Z,37.26
2018-06-30T07:10:18.978Z,37.55
2018-06-30T07:11:18.978Z,37.08
2018-06-30T07:12:18.725Z,34.56
2018-06-30T07:13:18.983Z,33.2
2018-06-30T07:14:18.988Z,32.13
2018-06-30T07:15:18.998Z,31.55
2018-06-30T07:16:18.994Z,29.22
2018-06-30T07:17:18.736Z,29.9
2018-06-30T07:18:18.998Z,30.47
2018-06-30T07:19:19.045Z,31.44
2018-06-30T07:20:19.000Z,30.95
2018-06-30T07:21:19.008Z,29.79
2018-06-30T07:22:19.017Z,29.69
2018-06-30T07:23:19.013Z,30.18
2018-06-30T07:24:18.757Z,29.41
2018-06-30T07:25:18.761Z,29.12
2018-06-30T07:26:19.022Z,28.45
2018-06-30T07:27:19.023Z,29.15
2018-06-30T07:28:19.032Z,28.86
2018-06-30T07:29:19.034Z,27.4
2018-06-30T07:30:19.062Z,26.64
2018-06-30T07:31:18.784Z,28.49
2018-06-30T07:32:19.053Z,28.5
2018-06-30T07:33:18.790Z,27.62
2018-06-30T07:34:19.049Z,27.33
2018-06-30T07:35:19.054Z,26.34
2018-06-30T07:36:19.060Z,26.53
2018-06-30T07:37:18.923Z,27.87
2018-06-30T07:38:19.072Z,27.86
2018-06-30T07:39:18.814Z,28.55
2018-06-30T07:40:18.824Z,28.45
2018-06-30T07:41:19.079Z,27.87
2018-06-30T07:42:18.826Z,28.44
2018-06-30T07:43:18.887Z,28.36
2018-06-30T07:44:18.837Z,27.48
2018-06-30T07:45:19.099Z,27.39
2018-06-30T07:46:19.105Z,27.68
2018-06-30T07:47:19.106Z,26.22
2018-06-30T07:48:19.111Z,26.04
2018-06-30T07:49:19.117Z,26.81
2018-06-30T07:50:19.226Z,26.51
2018-06-30T07:51:19.122Z,26.61
2018-06-30T07:52:19.133Z,27.1
2018-06-30T07:53:19.133Z,26.71
2018-06-30T07:54:19.138Z,26.03
2018-06-30T07:55:19.138Z,27.11
2018-06-30T07:56:19.146Z,26.33
2018-06-30T07:57:19.152Z,26.72
2018-06-30T07:58:19.151Z,25.07
2018-06-30T07:59:18.899Z,25.37
2018-06-30T08:00:19.165Z,26.33
2018-06-30T08:01:19.172Z,27.5
2018-06-30T08:02:18.915Z,28.76
2018-06-30T08:03:18.922Z,26.72
2018-06-30T08:04:18.926Z,24.39
2018-06-30T08:05:19.182Z,25.74
2018-06-30T08:06:19.193Z,25.73
2018-06-30T08:07:19.328Z,25.62
2018-06-30T08:08:18.942Z,27.75
2018-06-30T08:09:18.947Z,26.68
2018-06-30T08:10:18.949Z,29.1
2018-06-30T08:11:19.205Z,29.57
2018-06-30T08:12:19.212Z,27.06
2018-06-30T08:13:19.218Z,28.41
2018-06-30T08:14:19.219Z,29.58
2018-06-30T08:15:19.222Z,27.73
2018-06-30T08:16:19.221Z,27.73
2018-06-30T08:17:18.968Z,28.3
2018-06-30T08:18:19.228Z,28.79
2018-06-30T08:19:19.231Z,30.21
2018-06-30T08:20:18.980Z,30.99
2018-06-30T08:21:19.399Z,31.36
2018-06-30T08:22:18.978Z,32.99
2018-06-30T08:23:18.981Z,33.07
2018-06-30T08:24:19.235Z,33.92
2018-06-30T08:25:19.238Z,34.87
2018-06-30T08:26:19.240Z,35.92
2018-06-30T08:27:19.239Z,35.88
2018-06-30T08:28:19.236Z,36.73
2018-06-30T08:29:19.240Z,37.1
2018-06-30T08:30:19.240Z,37.66
2018-06-30T08:31:19.238Z,39.95
2018-06-30T08:32:19.240Z,39.86
2018-06-30T08:33:18.982Z,41.76
2018-06-30T08:34:19.241Z,41.08
2018-06-30T08:35:19.240Z,40.7
2018-06-30T08:36:19.431Z,41.76
2018-06-30T08:37:19.241Z,40.2
2018-06-30T08:38:18.983Z,39.43
2018-06-30T08:39:19.239Z,40.01
2018-06-30T08:40:19.238Z,39.43
2018-06-30T08:41:19.237Z,39.43
2018-06-30T08:42:19.242Z,40.76
2018-06-30T08:43:19.236Z,40.47
2018-06-30T08:44:19.233Z,39.41
2018-06-30T08:45:18.978Z,39.58
2018-06-30T08:46:19.229Z,39.97
2018-06-30T08:47:19.227Z,38.72
2018-06-30T08:48:19.226Z,41.79
2018-06-30T08:49:19.228Z,43.04
2018-06-30T08:50:18.968Z,42.18
2018-06-30T08:51:18.968Z,41.89
2018-06-30T08:52:19.222Z,37.95
2018-06-30T08:53:19.221Z,39.68
2018-06-30T08:54:19.219Z,39.49
2018-06-30T08:55:19.315Z,38.53
2018-06-30T08:56:19.216Z,37.66
2018-06-30T08:57:18.956Z,37.47
2018-06-30T08:58:19.213Z,39.49
2018-06-30T08:59:19.212Z,39.11
2018-06-30T09:00:19.207Z,37.93
2018-06-30T09:01:19.206Z,38.89
2018-06-30T09:02:19.205Z,39.66
2018-06-30T09:03:19.205Z,39.68
2018-06-30T09:04:18.951Z,37.18
2018-06-30T09:05:19.201Z,38.53
2018-06-30T09:06:19.394Z,39.68
2018-06-30T09:07:18.941Z,39.11
2018-06-30T09:08:18.936Z,38.53
2018-06-30T09:09:19.190Z,39.68
2018-06-30T09:10:19.189Z,37.95
2018-06-30T09:11:18.930Z,39.39
2018-06-30T09:12:19.232Z,39.39
2018-06-30T09:13:19.184Z,40.25
2018-06-30T09:14:19.178Z,39.01
2018-06-30T09:15:19.180Z,38.84
2018-06-30T09:16:19.285Z,37.39
2018-06-30T09:17:18.914Z,36.82
2018-06-30T09:18:19.174Z,38.43
2018-06-30T09:19:19.172Z,37.18
2018-06-30T09:20:19.389Z,38.62
2018-06-30T09:21:19.173Z,36.51
2018-06-30T09:22:19.165Z,36.99
2018-06-30T09:23:19.164Z,36.32
2018-06-30T09:24:19.290Z,35.64
2018-06-30T09:25:18.899Z,35.83
2018-06-30T09:26:19.153Z,37.47
2018-06-30T09:27:19.147Z,35.57
2018-06-30T09:28:19.156Z,34.88
2018-06-30T09:29:19.150Z,35.93
2018-06-30T09:30:19.144Z,39.01
2018-06-30T09:31:18.884Z,38.81
2018-06-30T09:32:19.138Z,35.47
2018-06-30T09:33:19.141Z,33.84
2018-06-30T09:34:19.135Z,34.39
2018-06-30T09:35:19.136Z,37.37
2018-06-30T09:36:18.873Z,38.14
2018-06-30T09:37:18.871Z,32.01
2018-06-30T09:38:18.869Z,33.26
2018-06-30T09:39:18.867Z,35.45
2018-06-30T09:40:18.869Z,33.72
2018-06-30T09:41:19.122Z,34.68
2018-06-30T09:42:18.860Z,33.82
2018-06-30T09:43:18.859Z,34.59
2018-06-30T09:44:19.194Z,36.9
2018-06-30T09:45:19.108Z,35.26
2018-06-30T09:46:18.851Z,35.74
2018-06-30T09:47:18.857Z,36.22
2018-06-30T09:48:19.107Z,35.18
2018-06-30T09:49:19.100Z,34.7
2018-06-30T09:50:19.097Z,35.85
2018-06-30T09:51:19.098Z,32.01
2018-06-30T09:52:19.090Z,33.36
2018-06-30T09:53:19.089Z,36.53
2018-06-30T09:54:19.089Z,36.83
2018-06-30T09:55:19.084Z,33.47
2018-06-30T09:56:19.083Z,33.85
2018-06-30T09:57:18.825Z,35.49
2018-06-30T09:58:19.078Z,33.28
2018-06-30T09:59:19.076Z,30.77
2018-06-30T10:00:19.072Z,29.62
2018-06-30T10:01:18.815Z,30.39
2018-06-30T10:02:19.072Z,29.81
2018-06-30T10:03:18.811Z,30
2018-06-30T10:04:18.810Z,30.1
2018-06-30T10:05:19.064Z,30.87
2018-06-30T10:06:19.060Z,31.16
2018-06-30T10:07:19.064Z,29.04
2018-06-30T10:08:18.799Z,30.39
2018-06-30T10:09:18.801Z,30.97
2018-06-30T10:10:19.057Z,30.19
2018-06-30T10:11:19.055Z,28.93
2018-06-30T10:12:19.046Z,31.15
2018-06-30T10:13:18.791Z,33.36
2018-06-30T10:14:18.790Z,34.61
2018-06-30T10:15:18.784Z,34.12
2018-06-30T10:16:18.785Z,36.33
2018-06-30T10:17:19.039Z,32.7
2018-06-30T10:18:18.779Z,32.21
2018-06-30T10:19:18.786Z,31.74
2018-06-30T10:20:19.030Z,33.37
2018-06-30T10:21:18.875Z,32.89
2018-06-30T10:22:19.027Z,29.62
2018-06-30T10:23:19.023Z,30.1
2018-06-30T10:24:19.021Z,34.33
2018-06-30T10:25:19.025Z,33.75
2018-06-30T10:26:19.024Z,32.43
2018-06-30T10:27:19.015Z,31.65
2018-06-30T10:28:19.012Z,31.37
2018-06-30T10:29:19.012Z,31.16
2018-06-30T10:30:19.008Z,30.87
2018-06-30T10:31:19.079Z,32.98
2018-06-30T10:32:19.079Z,35.2
2018-06-30T10:33:19.005Z,30.88
2018-06-30T10:34:19.001Z,28.58
2018-06-30T10:35:18.742Z,29.24
2018-06-30T10:36:18.993Z,30.19
2018-06-30T10:37:19.025Z,30.87
2018-06-30T10:38:18.994Z,31.27
2018-06-30T10:39:18.989Z,29.54
2018-06-30T10:40:18.989Z,28.95
2018-06-30T10:41:18.731Z,28.96
2018-06-30T10:42:19.166Z,29.43
2018-06-30T10:43:18.980Z,31.16
2018-06-30T10:44:18.978Z,33.28
2018-06-30T10:45:18.980Z,32.79
2018-06-30T10:46:18.982Z,33.47
2018-06-30T10:47:18.979Z,32.89
2018-06-30T10:48:18.971Z,32.98
2018-06-30T10:49:18.977Z,32.21
2018-06-30T10:50:18.710Z,30.49
2018-06-30T10:51:18.970Z,30.77
2018-06-30T10:52:18.964Z,30.39
2018-06-30T10:53:18.968Z,31.35
2018-06-30T10:54:18.959Z,30.87
2018-06-30T10:55:18.706Z,31.64
2018-06-30T10:56:18.955Z,33.08
2018-06-30T10:57:18.700Z,32.6
2018-06-30T10:58:18.953Z,33.18
2018-06-30T10:59:18.947Z,35
2018-06-30T11:00:19.140Z,35.77
2018-06-30T11:01:18.945Z,34.33
2018-06-30T11:02:18.944Z,35.68
2018-06-30T11:03:18.939Z,34.81
2018-06-30T11:04:18.762Z,31.26
2018-06-30T11:05:18.750Z,31.06
2018-06-30T11:06:18.934Z,30.68
2018-06-30T11:07:18.930Z,30.87
2018-06-30T11:08:18.935Z,30.39
2018-06-30T11:09:18.927Z,31.54
2018-06-30T11:10:18.941Z,27.4
2018-06-30T11:11:18.925Z,28.64
2018-06-30T11:12:18.665Z,30.57
2018-06-30T11:13:18.922Z,30.85
2018-06-30T11:14:18.924Z,32.49
2018-06-30T11:15:18.926Z,32.03
2018-06-30T11:16:18.917Z,32.31
2018-06-30T11:17:18.914Z,32.79
2018-06-30T11:18:18.654Z,30.97
2018-06-30T11:19:18.653Z,27.4
2018-06-30T11:20:19.049Z,27.6
2018-06-30T11:21:18.649Z,31.16
2018-06-30T11:22:18.972Z,28.66
2018-06-30T11:23:18.901Z,29.72
2018-06-30T11:24:18.899Z,29.81
2018-06-30T11:25:18.950Z,30.1
2018-06-30T11:26:18.895Z,30.39
2018-06-30T11:27:18.632Z,31.45
2018-06-30T11:28:18.889Z,31.93
2018-06-30T11:29:18.945Z,32.98
2018-06-30T11:30:18.630Z,34.33
2018-06-30T11:31:18.628Z,31.83
2018-06-30T11:32:18.886Z,31.16
2018-06-30T11:33:18.884Z,30.29
2018-06-30T11:34:18.875Z,32.12
2018-06-30T11:35:18.876Z,32.59
2018-06-30T11:36:18.872Z,36.53
2018-06-30T11:37:18.872Z,31.62
2018-06-30T11:38:18.868Z,34.51
2018-06-30T11:39:18.869Z,35.66
2018-06-30T11:40:18.864Z,35.77
2018-06-30T11:41:18.606Z,34.91
2018-06-30T11:42:18.858Z,35.2
2018-06-30T11:43:18.855Z,34.23
2018-06-30T11:44:18.855Z,32.41
2018-06-30T11:45:18.604Z,31.54
2018-06-30T11:46:18.850Z,31.64
2018-06-30T11:47:18.847Z,32.79
2018-06-30T11:48:18.848Z,33.56
2018-06-30T11:49:18.843Z,31.74
2018-06-30T11:50:18.977Z,31.95
2018-06-30T11:51:18.841Z,32.31
2018-06-30T11:52:18.840Z,29.72
2018-06-30T11:53:18.836Z,32.21
2018-06-30T11:54:18.836Z,33.66
2018-06-30T11:55:18.842Z,33.18
2018-06-30T11:56:18.830Z,32.79
2018-06-30T11:57:18.574Z,33.75
2018-06-30T11:58:18.827Z,31.83
2018-06-30T11:59:18.568Z,32.79
2018-06-30T12:00:18.820Z,34.81
2018-06-30T12:01:18.820Z,34.91
2018-06-30T12:02:18.828Z,30.77
2018-06-30T12:03:18.563Z,30.77
2018-06-30T12:04:18.816Z,28.18
2018-06-30T12:05:18.809Z,27.02
2018-06-30T12:06:18.818Z,30.49
2018-06-30T12:07:18.810Z,30.19
2018-06-30T12:08:18.809Z,32.1
2018-06-30T12:09:18.590Z,31.92
2018-06-30T12:10:18.802Z,31.72
2018-06-30T12:11:18.799Z,31.24
2018-06-30T12:12:18.542Z,31.34
2018-06-30T12:13:18.799Z,33.08
2018-06-30T12:14:18.800Z,32.31
2018-06-30T12:15:18.793Z,33.66
2018-06-30T12:16:18.795Z,34.81
2018-06-30T12:17:18.531Z,33.47
2018-06-30T12:18:18.533Z,32.31
2018-06-30T12:19:18.533Z,33.29
2018-06-30T12:20:18.789Z,33.1
2018-06-30T12:21:18.779Z,30.02
2018-06-30T12:22:18.780Z,32.43
2018-06-30T12:23:18.782Z,31.85
2018-06-30T12:24:18.518Z,31.18
2018-06-30T12:25:18.778Z,30.21
2018-06-30T12:26:18.778Z,35.12
2018-06-30T12:27:18.774Z,30.4
2018-06-30T12:28:18.769Z,29.15
2018-06-30T12:29:18.765Z,30
2018-06-30T12:30:18.859Z,30.87
2018-06-30T12:31:18.761Z,31.45
2018-06-30T12:32:18.874Z,29.43
2018-06-30T12:33:18.503Z,30.1
2018-06-30T12:34:18.764Z,31.26
2018-06-30T12:35:18.753Z,30.1
2018-06-30T12:36:18.754Z,31.06
2018-06-30T12:37:18.749Z,31.16
2018-06-30T12:38:18.750Z,30.1
2018-06-30T12:39:18.751Z,30.77
2018-06-30T12:40:18.746Z,30.49
2018-06-30T12:41:18.742Z,28.26
2018-06-30T12:42:18.742Z,28.56
2018-06-30T12:43:18.752Z,31.15
2018-06-30T12:44:18.734Z,30.87
2018-06-30T12:45:18.484Z,29.99
2018-06-30T12:46:18.753Z,31.16
2018-06-30T12:47:18.743Z,32.03
2018-06-30T12:48:18.735Z,31.24
2018-06-30T12:49:18.727Z,31.45
2018-06-30T12:50:18.727Z,33.28
2018-06-30T12:51:18.726Z,33.75
2018-06-30T12:52:18.728Z,34.23
2018-06-30T12:53:18.723Z,34.14
2018-06-30T12:54:18.891Z,35.3
2018-06-30T12:55:18.714Z,33.47
2018-06-30T12:56:18.717Z,32.41